Time;durP1;ratioP1;P1;durP2;ratioP2;P2;SDS_P1;SDS_P2;PMS_P1;PMS_P2;Temp;Humidity;BMP_temperature;BMP_pressure;BME280_temperature;BME280_humidity;BME280_pressure;Samples;Min_cycle;Max_cycle;Signal;HPM_P1;HPM_P2
2022/10/06 00:00:54;;;;;;;6.72;2.00;;;13.40;99.90;;;;;;5053678;28;20047;-62
2022/10/06 00:03:23;;;;;;;11.52;2.80;;;13.40;99.90;;;;;;5052247;28;20077;-62
2022/10/06 00:05:50;;;;;;;11.75;2.53;;;13.40;99.90;;;;;;5051322;28;20076;-62
2022/10/06 00:08:17;;;;;;;9.20;2.22;;;13.40;99.90;;;;;;5053521;28;20121;-62
2022/10/06 00:10:43;;;;;;;15.32;3.08;;;13.40;99.90;;;;;;5053714;28;20540;-61
2022/10/06 00:13:09;;;;;;;13.40;3.10;;;13.40;99.90;;;;;;5051094;28;20116;-61
2022/10/06 00:15:35;;;;;;;13.57;3.33;;;13.40;99.90;;;;;;5052030;28;20041;-61
2022/10/06 00:18:01;;;;;;;12.35;2.65;;;13.30;99.90;;;;;;5053214;28;20041;-61
2022/10/06 00:20:27;;;;;;;9.30;2.28;;;13.30;99.90;;;;;;5052294;28;20059;-61
2022/10/06 00:22:55;;;;;;;8.75;2.58;;;13.20;99.90;;;;;;5053097;28;20045;-61
2022/10/06 00:25:23;;;;;;;10.38;2.75;;;13.20;99.90;;;;;;5051101;28;20044;-61
2022/10/06 00:27:50;;;;;;;8.50;2.20;;;13.20;99.90;;;;;;5035013;28;20091;-61
2022/10/06 00:30:22;;;;;;;13.35;2.85;;;13.10;99.90;;;;;;5050980;28;20143;-61
2022/10/06 00:32:57;;;;;;;14.13;2.75;;;13.10;99.90;;;;;;5052091;28;20041;-61
2022/10/06 00:35:24;;;;;;;10.67;2.20;;;13.10;99.90;;;;;;5051610;28;20112;-61
2022/10/06 00:37:50;;;;;;;8.23;2.28;;;13.00;99.90;;;;;;5051528;28;20565;-61
2022/10/06 00:40:16;;;;;;;13.02;2.92;;;13.00;99.90;;;;;;5050787;28;20080;-61
2022/10/06 00:43:04;;;;;;;10.15;2.83;;;12.90;99.90;;;;;;5053018;28;20072;-61
2022/10/06 00:45:41;;;;;;;10.15;2.20;;;12.90;99.90;;;;;;5051323;28;20048;-61
2022/10/06 00:48:22;;;;;;;5.43;1.73;;;12.90;99.90;;;;;;5050429;28;20049;-61
2022/10/06 00:50:50;;;;;;;7.75;2.20;;;12.90;99.90;;;;;;5051313;28;20047;-61
2022/10/06 00:53:16;;;;;;;11.18;2.72;;;13.00;99.90;;;;;;5052589;28;20041;-61
2022/10/06 00:55:41;;;;;;;8.27;2.63;;;13.00;99.90;;;;;;5051520;28;20040;-62
2022/10/06 00:58:09;;;;;;;9.73;2.30;;;13.00;99.90;;;;;;5051421;28;20087;-61
2022/10/06 01:00:34;;;;;;;8.30;2.30;;;13.10;99.90;;;;;;5051480;28;20129;-61
2022/10/06 01:03:13;;;;;;;11.27;2.20;;;13.10;99.90;;;;;;5052593;28;20119;-61
2022/10/06 01:05:47;;;;;;;12.95;2.95;;;13.10;99.90;;;;;;5052908;28;20044;-61
2022/10/06 01:08:14;;;;;;;10.60;2.70;;;13.10;99.90;;;;;;5051499;28;20049;-61
2022/10/06 01:10:40;;;;;;;10.48;2.00;;;13.10;99.90;;;;;;5052455;28;20041;-62
2022/10/06 01:13:09;;;;;;;12.32;2.45;;;13.10;99.90;;;;;;5051136;28;20385;-61
2022/10/06 01:15:38;;;;;;;13.40;3.33;;;13.10;99.90;;;;;;5033815;28;20362;-61
2022/10/06 01:18:12;;;;;;;10.10;2.10;;;13.10;99.90;;;;;;5034326;28;20045;-62
2022/10/06 01:20:49;;;;;;;12.20;2.70;;;13.00;99.90;;;;;;5052480;28;20037;-62
2022/10/06 01:23:15;;;;;;;8.15;2.30;;;13.00;99.90;;;;;;5050451;28;20048;-61
2022/10/06 01:25:41;;;;;;;11.20;2.47;;;13.00;99.90;;;;;;5051245;28;20389;-61
2022/10/06 01:28:08;;;;;;;11.98;2.70;;;12.90;99.90;;;;;;5051906;28;20429;-62
2022/10/06 01:30:40;;;;;;;16.25;3.17;;;12.90;99.90;;;;;;5049925;28;20083;-62
2022/10/06 01:33:06;;;;;;;11.88;2.42;;;12.90;99.90;;;;;;5051135;28;20123;-62
2022/10/06 01:35:31;;;;;;;10.20;2.85;;;13.00;99.90;;;;;;5050037;28;20120;-62
2022/10/06 01:37:58;;;;;;;9.07;2.22;;;12.90;99.90;;;;;;5050568;28;20067;-62
2022/10/06 01:40:25;;;;;;;10.35;2.60;;;12.90;99.90;;;;;;5051525;28;20052;-62
2022/10/06 01:42:51;;;;;;;8.60;2.30;;;12.90;99.90;;;;;;5051131;28;20051;-62
2022/10/06 01:45:17;;;;;;;10.63;2.13;;;12.90;99.90;;;;;;5051775;28;20401;-62
2022/10/06 01:47:43;;;;;;;10.70;3.10;;;12.80;99.90;;;;;;5051909;28;20052;-62
2022/10/06 01:50:09;;;;;;;8.02;2.00;;;12.70;99.90;;;;;;5051144;28;20049;-62
2022/10/06 01:52:35;;;;;;;8.20;1.95;;;12.70;99.90;;;;;;5050477;28;20382;-62
2022/10/06 01:55:01;;;;;;;12.38;2.72;;;12.70;99.90;;;;;;5050473;28;20124;-62
2022/10/06 01:57:27;;;;;;;7.75;1.95;;;12.70;99.90;;;;;;5049657;28;20482;-62
2022/10/06 01:59:52;;;;;;;12.35;2.40;;;12.60;99.90;;;;;;5050498;28;20041;-62
2022/10/06 02:02:18;;;;;;;12.23;2.45;;;12.60;99.90;;;;;;5050351;28;20080;-62
2022/10/06 02:04:44;;;;;;;28.73;3.83;;;12.60;99.90;;;;;;5051177;28;20128;-62
2022/10/06 02:07:10;;;;;;;10.13;3.25;;;12.70;99.90;;;;;;5050515;28;20048;-62
2022/10/06 02:09:36;;;;;;;11.63;2.50;;;12.70;99.90;;;;;;5050324;28;20108;-63
2022/10/06 02:12:03;;;;;;;11.07;2.35;;;12.60;99.90;;;;;;5051073;28;20064;-63
2022/10/06 02:14:30;;;;;;;12.93;3.40;;;12.60;99.90;;;;;;5033808;28;20044;-63
2022/10/06 02:16:56;;;;;;;15.50;2.60;;;12.50;99.90;;;;;;5051452;28;20076;-62
2022/10/06 02:19:21;;;;;;;15.02;3.45;;;12.50;99.90;;;;;;5050813;28;20087;-62
2022/10/06 02:21:47;;;;;;;12.35;2.78;;;12.40;99.90;;;;;;5051495;28;20045;-62
2022/10/06 02:24:12;;;;;;;9.73;2.50;;;12.30;99.90;;;;;;5050260;28;20425;-63
2022/10/06 02:26:38;;;;;;;9.10;3.08;;;12.30;99.90;;;;;;5033126;28;20037;-62
2022/10/06 02:29:04;;;;;;;11.73;2.80;;;12.30;99.90;;;;;;5051629;28;20056;-62
2022/10/06 02:31:30;;;;;;;10.75;2.47;;;12.20;99.90;;;;;;5051638;28;20064;-62
2022/10/06 02:33:56;;;;;;;11.80;3.10;;;12.30;99.90;;;;;;5049335;28;20049;-62
2022/10/06 02:36:22;;;;;;;10.85;2.50;;;12.30;99.90;;;;;;5051181;28;20098;-62
2022/10/06 02:38:48;;;;;;;13.07;3.08;;;12.30;99.90;;;;;;5049566;28;20053;-62
2022/10/06 02:41:14;;;;;;;9.65;2.65;;;12.30;99.90;;;;;;5049988;28;20052;-62
2022/10/06 02:43:39;;;;;;;15.60;2.35;;;12.30;99.90;;;;;;5050572;28;20048;-62
2022/10/06 02:46:12;;;;;;;13.98;3.85;;;12.30;99.90;;;;;;5050416;28;20044;-62
2022/10/06 02:48:39;;;;;;;9.00;2.33;;;12.30;99.90;;;;;;5050088;28;20124;-61
2022/10/06 02:51:07;;;;;;;12.23;3.08;;;12.30;99.90;;;;;;5033325;28;20095;-62
2022/10/06 02:53:34;;;;;;;12.07;2.42;;;12.30;99.90;;;;;;5051594;28;20140;-62
2022/10/06 02:56:08;;;;;;;9.85;2.70;;;12.30;99.90;;;;;;5054863;28;20394;-61
2022/10/06 02:58:34;;;;;;;9.45;2.20;;;12.30;99.90;;;;;;5054741;28;20520;-62
2022/10/06 03:01:02;;;;;;;15.77;2.90;;;12.30;99.90;;;;;;5053988;28;20029;-62
2022/10/06 03:03:28;;;;;;;9.98;2.42;;;12.40;99.90;;;;;;5054555;28;20033;-62
2022/10/06 03:06:20;;;;;;;9.05;1.80;;;12.40;99.90;;;;;;5053558;28;20048;-62
2022/10/06 03:08:54;;;;;;;11.20;3.25;;;12.40;99.90;;;;;;5053627;28;20435;-62
2022/10/06 03:11:22;;;;;;;14.65;3.10;;;12.30;99.90;;;;;;5053503;28;20462;-62
2022/10/06 03:13:49;;;;;;;11.30;2.38;;;12.30;99.90;;;;;;5053396;28;20120;-62
2022/10/06 03:16:19;;;;;;;12.23;2.55;;;12.30;99.90;;;;;;5053645;28;20547;-62
2022/10/06 03:18:49;;;;;;;13.27;2.70;;;12.20;99.90;;;;;;5054689;28;20080;-62
2022/10/06 03:21:20;;;;;;;9.63;2.53;;;12.20;99.90;;;;;;5052322;28;20040;-62
2022/10/06 03:23:48;;;;;;;11.68;2.80;;;12.10;99.90;;;;;;5053006;28;20509;-62
2022/10/06 03:26:16;;;;;;;10.95;3.00;;;12.10;99.90;;;;;;5054292;28;20041;-62
2022/10/06 03:28:43;;;;;;;9.13;2.75;;;12.10;99.90;;;;;;5035862;28;20370;-62
2022/10/06 03:31:09;;;;;;;12.27;2.65;;;12.10;99.90;;;;;;5052932;28;20051;-62
2022/10/06 03:33:34;;;;;;;14.48;2.90;;;12.10;99.90;;;;;;5054223;28;20029;-62
2022/10/06 03:36:12;;;;;;;16.38;3.30;;;12.10;99.90;;;;;;5052493;28;20044;-62
2022/10/06 03:38:39;;;;;;;10.93;2.88;;;12.00;99.90;;;;;;5036426;28;20045;-62
2022/10/06 03:41:26;;;;;;;11.05;3.25;;;12.00;99.90;;;;;;5052628;28;20048;-62
2022/10/06 03:43:53;;;;;;;10.38;2.58;;;12.00;99.90;;;;;;5051739;28;20056;-62
2022/10/06 03:46:21;;;;;;;10.73;2.70;;;11.90;99.90;;;;;;5054012;28;20044;-62
2022/10/06 03:48:48;;;;;;;12.98;3.05;;;11.90;99.90;;;;;;5052374;28;20061;-62
2022/10/06 03:51:28;;;;;;;16.00;3.28;;;11.90;99.90;;;;;;5052795;28;20052;-62
2022/10/06 03:53:55;;;;;;;10.88;2.47;;;11.90;99.90;;;;;;5052452;28;20474;-62
2022/10/06 03:56:29;;;;;;;13.25;3.58;;;11.90;99.90;;;;;;5051516;28;20049;-62
2022/10/06 03:59:01;;;;;;;9.32;2.90;;;11.90;99.90;;;;;;5052461;28;20041;-62
2022/10/06 04:01:46;;;;;;;10.88;2.97;;;11.90;99.90;;;;;;5053806;28;20037;-62
2022/10/06 04:04:13;;;;;;;11.82;2.42;;;11.90;99.90;;;;;;5050897;28;20049;-63
2022/10/06 04:06:41;;;;;;;12.68;2.58;;;12.00;99.90;;;;;;5052378;28;20036;-62
2022/10/06 04:09:09;;;;;;;11.00;2.88;;;12.00;99.90;;;;;;5053648;28;20115;-62
2022/10/06 04:11:37;;;;;;;14.73;3.42;;;12.00;99.90;;;;;;5051553;28;20060;-62
2022/10/06 04:14:05;;;;;;;13.70;3.03;;;12.00;99.90;;;;;;5053414;28;20551;-62
2022/10/06 04:16:36;;;;;;;14.98;3.00;;;12.00;99.90;;;;;;5051938;28;20045;-62
2022/10/06 04:19:08;;;;;;;8.52;2.13;;;12.10;99.90;;;;;;5052540;28;20072;-62
2022/10/06 04:21:35;;;;;;;9.77;2.63;;;12.00;99.90;;;;;;5051807;28;20049;-62
2022/10/06 04:24:02;;;;;;;14.95;2.83;;;12.00;99.90;;;;;;5053369;28;20385;-62
2022/10/06 04:26:33;;;;;;;10.13;2.40;;;12.00;99.90;;;;;;5051028;28;20125;-62
2022/10/06 04:29:01;;;;;;;12.02;3.00;;;12.00;99.90;;;;;;5052179;28;20051;-62
2022/10/06 04:31:30;;;;;;;11.18;2.80;;;12.00;99.90;;;;;;5051039;28;20091;-62
2022/10/06 04:34:00;;;;;;;10.73;2.40;;;12.10;99.90;;;;;;5051503;28;20053;-62
2022/10/06 04:36:28;;;;;;;13.90;2.85;;;12.00;99.90;;;;;;5051529;28;20090;-62
2022/10/06 04:38:58;;;;;;;18.08;3.33;;;12.10;99.90;;;;;;5051915;28;20072;-62
2022/10/06 04:41:34;;;;;;;9.90;3.15;;;12.00;99.90;;;;;;5051417;28;20101;-62
2022/10/06 04:44:01;;;;;;;9.93;2.55;;;12.00;99.90;;;;;;5051676;28;20049;-62
2022/10/06 04:46:27;;;;;;;11.70;2.75;;;11.90;99.90;;;;;;5050909;28;20127;-62
2022/10/06 04:48:54;;;;;;;13.43;3.38;;;12.00;99.90;;;;;;5051103;28;20083;-62
2022/10/06 04:51:22;;;;;;;8.85;3.03;;;11.90;99.90;;;;;;5052852;28;20048;-62
2022/10/06 04:53:48;;;;;;;9.40;2.78;;;11.90;99.90;;;;;;5050746;28;20087;-62
2022/10/06 04:56:17;;;;;;;10.82;3.13;;;11.90;99.90;;;;;;5052770;28;20123;-62
2022/10/06 04:58:45;;;;;;;11.55;2.95;;;11.80;99.90;;;;;;5051558;28;20144;-62
2022/10/06 05:01:20;;;;;;;19.27;3.15;;;11.80;99.90;;;;;;5034219;28;20055;-62
2022/10/06 05:03:47;;;;;;;11.32;3.08;;;11.80;99.90;;;;;;5052369;28;20040;-61
2022/10/06 05:06:19;;;;;;;13.15;2.65;;;11.80;99.90;;;;;;5051313;28;20432;-61
2022/10/06 05:08:56;;;;;;;15.85;3.85;;;11.80;99.90;;;;;;5051652;28;20120;-62
2022/10/06 05:11:22;;;;;;;11.85;3.20;;;11.80;99.90;;;;;;5051025;28;20047;-62
2022/10/06 05:13:55;;;;;;;10.70;3.35;;;11.80;99.90;;;;;;5051622;28;20049;-62
2022/10/06 05:16:22;;;;;;;12.93;2.92;;;11.70;99.90;;;;;;5050438;28;20497;-62
2022/10/06 05:18:48;;;;;;;10.30;2.85;;;11.70;99.90;;;;;;5050760;28;20045;-62
2022/10/06 05:21:16;;;;;;;11.32;2.35;;;11.70;99.90;;;;;;5051275;28;20041;-62
2022/10/06 05:23:43;;;;;;;11.43;2.95;;;11.70;99.90;;;;;;5051217;28;20048;-62
2022/10/06 05:26:15;;;;;;;11.18;2.70;;;11.60;99.90;;;;;;5052066;28;20074;-61
2022/10/06 05:28:40;;;;;;;11.93;2.95;;;11.60;99.90;;;;;;5050233;28;20401;-62
2022/10/06 05:31:09;;;;;;;12.18;3.17;;;11.60;99.90;;;;;;5052299;28;20174;-61
2022/10/06 05:33:35;;;;;;;16.48;3.00;;;11.60;99.90;;;;;;5050931;28;20095;-62
2022/10/06 05:36:04;;;;;;;14.13;2.92;;;11.60;99.90;;;;;;5051391;28;20072;-62
2022/10/06 05:38:31;;;;;;;14.02;4.05;;;11.60;99.90;;;;;;5034242;28;20045;-62
2022/10/06 05:41:07;;;;;;;11.35;3.08;;;11.50;99.90;;;;;;5050565;28;20041;-62
2022/10/06 05:43:33;;;;;;;18.95;4.38;;;11.50;99.90;;;;;;5050101;28;20041;-62
2022/10/06 05:46:02;;;;;;;11.82;3.33;;;11.40;99.90;;;;;;5050491;28;20087;-61
2022/10/06 05:48:28;;;;;;;13.77;3.50;;;11.30;99.90;;;;;;5050424;28;20049;-62
2022/10/06 05:51:03;;;;;;;13.05;2.80;;;11.30;99.90;;;;;;5050038;28;20107;-62
2022/10/06 05:53:31;;;;;;;10.05;3.25;;;11.30;99.90;;;;;;5050475;28;20056;-62
2022/10/06 05:56:09;;;;;;;14.90;3.45;;;11.20;99.90;;;;;;5051163;28;20052;-62
2022/10/06 05:58:36;;;;;;;12.75;2.85;;;11.20;99.90;;;;;;5034068;28;20041;-62
2022/10/06 06:01:06;;;;;;;14.02;3.63;;;11.20;99.90;;;;;;5050720;28;20128;-62
2022/10/06 06:03:32;;;;;;;12.40;3.05;;;11.20;99.90;;;;;;5049816;28;20037;-62
2022/10/06 06:05:57;;;;;;;12.48;3.05;;;11.20;99.90;;;;;;5050747;28;20132;-62
2022/10/06 06:08:23;;;;;;;15.63;2.92;;;11.10;99.90;;;;;;5050529;28;20401;-62
2022/10/06 06:10:49;;;;;;;14.07;3.72;;;11.10;99.90;;;;;;5049800;28;20037;-62
2022/10/06 06:13:22;;;;;;;14.38;2.85;;;11.10;99.90;;;;;;5051519;28;20486;-62
2022/10/06 06:16:00;;;;;;;16.70;3.28;;;11.10;99.90;;;;;;5051701;28;20033;-62
2022/10/06 06:18:32;;;;;;;9.13;2.70;;;11.10;99.90;;;;;;5051012;28;20123;-62
2022/10/06 06:21:00;;;;;;;9.63;2.78;;;11.10;99.90;;;;;;5051779;28;20041;-62
2022/10/06 06:23:31;;;;;;;10.90;2.53;;;11.10;99.90;;;;;;5050496;28;20127;-62
2022/10/06 06:25:59;;;;;;;13.88;3.30;;;11.10;99.90;;;;;;5032980;28;20045;-62
2022/10/06 06:28:28;;;;;;;8.73;3.05;;;11.10;99.90;;;;;;5053813;28;20041;-62
2022/10/06 06:31:10;;;;;;;10.57;3.10;;;11.10;99.90;;;;;;5053421;28;20052;-62
2022/10/06 06:33:37;;;;;;;9.45;2.75;;;11.10;99.90;;;;;;5055204;28;20485;-62
2022/10/06 06:36:34;;;;;;;12.00;3.15;;;11.10;99.90;;;;;;5054254;28;20048;-62
2022/10/06 06:39:01;;;;;;;12.82;3.28;;;11.20;99.90;;;;;;5053258;28;20045;-62
2022/10/06 06:41:32;;;;;;;12.65;3.30;;;11.20;99.90;;;;;;5037158;28;20119;-62
2022/10/06 06:44:01;;;;;;;14.90;3.60;;;11.30;99.90;;;;;;5037247;28;20045;-61
2022/10/06 06:46:30;;;;;;;13.63;3.05;;;11.30;99.90;;;;;;5036362;28;20120;-62
2022/10/06 06:49:03;;;;;;;10.43;2.63;;;11.30;99.90;;;;;;5053446;28;20057;-62
2022/10/06 06:51:33;;;;;;;14.93;3.15;;;11.30;99.90;;;;;;5054739;28;20498;-62
2022/10/06 06:54:01;;;;;;;13.35;2.90;;;11.30;99.90;;;;;;5053120;28;20478;-62
2022/10/06 06:56:27;;;;;;;12.95;2.72;;;11.40;99.90;;;;;;5054845;28;20104;-62
2022/10/06 06:58:53;;;;;;;13.90;3.60;;;11.50;99.90;;;;;;5053452;28;20045;-62
2022/10/06 07:01:21;;;;;;;16.15;4.30;;;11.50;99.90;;;;;;5054188;28;20090;-61
2022/10/06 07:03:55;;;;;;;21.88;4.47;;;11.50;99.90;;;;;;5053777;28;20500;-62
2022/10/06 07:06:21;;;;;;;19.92;3.47;;;11.60;99.90;;;;;;5053873;28;20041;-62
2022/10/06 07:08:48;;;;;;;11.70;2.78;;;11.70;99.90;;;;;;5054564;28;20413;-62
2022/10/06 07:11:18;;;;;;;10.50;2.42;;;11.80;99.90;;;;;;5053486;28;20535;-62
2022/10/06 07:13:45;;;;;;;11.52;3.85;;;11.80;99.90;;;;;;5052590;28;20546;-62
2022/10/06 07:27:42;;;;;;;15.48;2.88;;;12.10;99.90;;;;;;5047359;28;20168;-62
2022/10/06 07:30:16;;;;;;;10.27;3.08;;;12.20;99.90;;;;;;5047490;28;20043;-61
2022/10/06 07:32:43;;;;;;;14.45;3.40;;;12.30;99.90;;;;;;5053300;28;20037;-61
2022/10/06 07:35:08;;;;;;;14.00;3.40;;;12.40;99.90;;;;;;5052446;28;20071;-62
2022/10/06 07:37:35;;;;;;;12.05;3.03;;;12.50;99.90;;;;;;5052706;28;20049;-62
2022/10/06 07:40:01;;;;;;;15.25;3.42;;;12.50;99.90;;;;;;5053358;28;20045;-62
2022/10/06 07:42:27;;;;;;;13.90;2.92;;;12.60;99.90;;;;;;5031803;28;20074;-61
2022/10/06 07:47:37;;;;;;;9.88;2.70;;;12.70;99.90;;;;;;5051311;28;20128;-60
2022/10/06 07:50:07;;;;;;;10.43;2.47;;;12.80;99.90;;;;;;5049254;28;20120;-61
2022/10/06 07:52:35;;;;;;;10.07;2.40;;;12.90;99.90;;;;;;5049733;28;20044;-61
2022/10/06 07:55:00;;;;;;;14.25;2.80;;;13.00;99.90;;;;;;5049265;28;20115;-61
2022/10/06 07:57:33;;;;;;;12.32;3.78;;;13.00;99.90;;;;;;5082340;28;20127;-61
2022/10/06 07:59:59;;;;;;;10.70;2.63;;;13.10;99.90;;;;;;5063925;28;20052;-61
2022/10/06 08:02:25;;;;;;;9.55;2.45;;;13.20;99.90;;;;;;5048755;28;20447;-61
2022/10/06 08:19:35;;;;;;;13.25;2.95;;;13.50;99.90;;;;;;5049776;28;20096;-62
2022/10/06 08:22:01;;;;;;;12.48;3.08;;;13.50;99.90;;;;;;5049912;28;20565;-63
2022/10/06 08:24:27;;;;;;;9.05;2.92;;;13.60;99.90;;;;;;5048555;28;20418;-63
2022/10/06 08:26:53;;;;;;;12.18;2.80;;;13.60;99.90;;;;;;5049962;28;20043;-63
2022/10/06 08:29:18;;;;;;;8.02;1.95;;;13.60;99.90;;;;;;5052028;28;20033;-63
2022/10/06 08:31:44;;;;;;;8.57;1.92;;;13.70;99.90;;;;;;5084743;28;20486;-63
2022/10/06 08:34:10;;;;;;;10.25;2.55;;;13.70;99.90;;;;;;5053317;28;20048;-63
2022/10/06 08:36:36;;;;;;;11.32;2.25;;;13.80;99.90;;;;;;5051495;28;20041;-63
2022/10/06 08:39:01;;;;;;;15.45;2.65;;;13.80;99.90;;;;;;5050100;28;20057;-63
2022/10/06 08:41:38;;;;;;;10.98;2.28;;;13.80;99.90;;;;;;5084389;28;20041;-63
2022/10/06 08:44:17;;;;;;;7.93;2.50;;;13.90;99.90;;;;;;5051476;28;20044;-63
2022/10/06 08:47:03;;;;;;;10.48;2.83;;;13.90;99.90;;;;;;5050396;28;20494;-63
2022/10/06 08:49:43;;;;;;;10.82;2.60;;;14.00;99.90;;;;;;5064174;28;20115;-63
2022/10/06 08:52:46;;;;;;;9.63;2.58;;;14.00;99.90;;;;;;5030297;28;20046;-63
2022/10/06 08:55:30;;;;;;;11.05;2.55;;;14.10;99.90;;;;;;5041762;28;20041;-63
2022/10/06 08:58:13;;;;;;;10.20;2.05;;;14.10;99.90;;;;;;5051144;28;20043;-63
2022/10/06 09:00:39;;;;;;;10.70;2.33;;;14.20;99.90;;;;;;5050911;28;20405;-63
2022/10/06 09:03:12;;;;;;;11.93;2.83;;;14.20;99.90;;;;;;5052757;28;20041;-63
2022/10/06 09:05:38;;;;;;;11.75;2.67;;;14.20;99.90;;;;;;5049233;28;20040;-63
2022/10/06 09:08:59;;;;;;;10.02;2.55;;;14.30;99.90;;;;;;5050626;28;20049;-63
2022/10/06 09:11:25;;;;;;;12.48;2.65;;;14.40;99.90;;;;;;5049428;28;20045;-63
2022/10/06 09:14:29;;;;;;;12.25;2.95;;;14.40;99.90;;;;;;5051130;28;20041;-63
2022/10/06 09:17:00;;;;;;;9.30;2.58;;;14.50;99.90;;;;;;5050747;28;20110;-63
2022/10/06 09:42:19;;;;;;;12.90;2.47;;;15.00;99.90;;;;;;5049208;28;20043;-63
2022/10/06 09:44:51;;;;;;;8.80;1.90;;;15.10;99.90;;;;;;5048746;28;20032;-62
2022/10/06 09:47:38;;;;;;;11.68;3.25;;;15.20;99.90;;;;;;5050314;28;20370;-63
2022/10/06 09:50:20;;;;;;;11.13;2.70;;;15.10;99.90;;;;;;5047449;28;20375;-63
2022/10/06 09:53:02;;;;;;;10.50;2.70;;;15.10;99.90;;;;;;5040925;28;20093;-63
2022/10/06 09:55:50;;;;;;;13.50;3.65;;;15.20;99.90;;;;;;5035278;28;20145;-63
2022/10/06 09:58:31;;;;;;;10.65;3.00;;;15.30;99.90;;;;;;5044842;28;20059;-63
2022/10/06 10:01:00;;;;;;;9.93;2.97;;;15.40;99.90;;;;;;5046463;28;20068;-63
2022/10/06 10:03:39;;;;;;;6.97;2.10;;;15.40;99.90;;;;;;5050471;28;20040;-63
2022/10/06 10:06:05;;;;;;;9.57;1.75;;;15.40;99.90;;;;;;5051939;28;20048;-63
2022/10/06 10:08:31;;;;;;;10.77;2.67;;;15.30;99.90;;;;;;5054171;28;20037;-63
2022/10/06 10:13:56;;;;;;;12.40;3.05;;;15.50;99.90;;;;;;5052210;28;20371;-63
2022/10/06 10:16:29;;;;;;;8.20;2.33;;;15.40;99.90;;;;;;5053975;28;20119;-62
2022/10/06 10:18:55;;;;;;;8.23;1.60;;;15.40;99.90;;;;;;5037266;28;20543;-59
2022/10/06 10:21:32;;;;;;;5.82;1.70;;;15.40;99.90;;;;;;5052690;28;20036;-60
2022/10/06 10:23:59;;;;;;;8.98;2.30;;;15.40;99.90;;;;;;5053090;28;20036;-61
2022/10/06 10:26:38;;;;;;;15.13;2.10;;;15.40;99.90;;;;;;5054100;28;20047;-62
2022/10/06 10:29:13;;;;;;;8.27;1.90;;;15.50;99.90;;;;;;5055100;28;20052;-62
2022/10/06 10:31:51;;;;;;;17.50;3.42;;;15.60;99.90;;;;;;5053537;28;20059;-62
2022/10/06 10:34:53;;;;;;;6.63;1.77;;;15.80;99.90;;;;;;5055521;28;20033;-62
2022/10/06 10:37:41;;;;;;;10.13;3.10;;;15.80;99.90;;;;;;5035401;28;20402;-62
2022/10/06 10:40:22;;;;;;;10.68;1.98;;;15.80;99.90;;;;;;5052512;28;20505;-63
2022/10/06 10:43:24;;;;;;;8.38;2.13;;;15.70;99.90;;;;;;5067626;28;20442;-62
2022/10/06 10:46:20;;;;;;;9.10;1.90;;;15.50;99.90;;;;;;5049504;28;20084;-62
2022/10/06 10:49:05;;;;;;;8.07;2.33;;;15.50;99.90;;;;;;5053506;28;20056;-62
2022/10/06 10:51:32;;;;;;;;;;;15.60;99.90;;;;;;5054294;28;20119;-62
2022/10/06 10:54:01;;;;;;;7.03;1.70;;;15.50;99.90;;;;;;5053484;28;20434;-62
2022/10/06 10:56:31;;;;;;;7.50;1.52;;;15.50;99.90;;;;;;5053263;28;20120;-62
2022/10/06 10:59:24;;;;;;;9.95;1.65;;;15.40;99.90;;;;;;5052562;28;20041;-62
2022/10/06 11:01:59;;;;;;;6.63;1.50;;;15.30;99.90;;;;;;5053423;28;20041;-62
2022/10/06 11:04:25;;;;;;;8.25;2.08;;;15.20;99.90;;;;;;5053179;28;20076;-62
2022/10/06 11:07:12;;;;;;;9.43;1.80;;;15.10;99.90;;;;;;5051928;28;20478;-62
2022/10/06 11:09:45;;;;;;;8.30;2.05;;;15.30;99.90;;;;;;5086946;28;20421;-62
2022/10/06 11:12:36;;;;;;;17.75;2.33;;;15.40;99.90;;;;;;5036335;28;20091;-62
2022/10/06 11:15:15;;;;;;;7.40;1.63;;;15.40;99.90;;;;;;5051585;28;20497;-62
2022/10/06 11:17:49;;;;;;;7.50;1.52;;;15.40;99.90;;;;;;5053624;28;20194;-61
2022/10/06 11:20:20;;;;;;;8.07;2.10;;;15.30;99.90;;;;;;5053466;28;20064;-65
2022/10/06 11:23:41;;;;;;;13.95;2.40;;;15.20;99.90;;;;;;5053386;28;20165;-64
2022/10/06 11:26:13;;;;;;;6.82;1.88;;;15.10;99.90;;;;;;5033866;28;20048;-64
2022/10/06 11:29:00;;;;;;;8.68;1.67;;;15.10;99.90;;;;;;5051631;28;20094;-65
2022/10/06 11:31:40;;;;;;;10.20;1.65;;;15.30;99.90;;;;;;5034383;28;20049;-65
2022/10/06 11:34:08;;;;;;;7.38;1.92;;;15.40;99.90;;;;;;5041839;28;20044;-63
2022/10/06 11:36:40;;;;;;;6.38;1.50;;;15.60;99.90;;;;;;5054237;28;20080;-63
2022/10/06 11:39:13;;;;;;;9.15;2.38;;;15.70;99.90;;;;;;5036382;28;20444;-63
2022/10/06 11:41:47;;;;;;;9.35;1.95;;;15.80;99.90;;;;;;5052373;28;20053;-63
2022/10/06 11:44:43;;;;;;;9.48;2.30;;;15.70;99.90;;;;;;5052402;28;20048;-63
2022/10/06 11:47:21;;;;;;;6.63;1.70;;;15.70;99.90;;;;;;5047906;28;20061;-63
2022/10/06 11:49:52;;;;;;;12.70;2.80;;;15.80;99.90;;;;;;5035159;28;20043;-63
2022/10/06 11:52:37;;;;;;;7.35;1.77;;;15.90;99.90;;;;;;5053308;28;20060;-62
2022/10/06 11:55:13;;;;;;;7.43;1.65;;;15.90;99.90;;;;;;5078032;28;20494;-62
2022/10/06 11:58:06;;;;;;;6.97;1.63;;;15.90;99.90;;;;;;5052646;28;20032;-62
2022/10/06 12:00:32;;;;;;;10.13;1.98;;;16.00;99.90;;;;;;5034923;28;20521;-61
2022/10/06 12:03:30;;;;;;;8.27;1.75;;;16.00;99.90;;;;;;5080531;28;20042;-61
2022/10/06 12:05:56;;;;;;;5.88;1.33;;;16.10;99.90;;;;;;5050941;28;20083;-61
2022/10/06 12:08:48;;;;;;;7.63;1.83;;;16.10;99.90;;;;;;5049655;28;20063;-61
2022/10/06 12:11:36;;;;;;;8.45;1.77;;;16.00;99.90;;;;;;5041251;28;20077;-61
2022/10/06 12:14:04;;;;;;;8.88;2.13;;;16.10;99.90;;;;;;5047006;28;20456;-61
2022/10/06 12:16:43;;;;;;;10.50;2.05;;;16.20;99.90;;;;;;5048217;28;20044;-61
2022/10/06 12:19:29;;;;;;;6.90;1.65;;;16.30;99.90;;;;;;5048246;28;20048;-60
2022/10/06 12:22:24;;;;;;;5.25;1.42;;;16.30;99.90;;;;;;5048048;28;20124;-60
2022/10/06 12:24:54;;;;;;;8.80;1.85;;;16.40;99.90;;;;;;5046936;28;20049;-60
2022/10/06 12:27:41;;;;;;;7.63;2.33;;;16.30;99.90;;;;;;5049901;28;20509;-60
2022/10/06 12:30:17;;;;;;;8.25;2.03;;;16.30;99.90;;;;;;5049169;28;20455;-60
2022/10/06 12:32:46;;;;;;;6.97;1.52;;;16.30;99.90;;;;;;5050297;28;20056;-60
2022/10/06 12:35:27;;;;;;;8.60;1.65;;;16.30;99.90;;;;;;5047074;28;20048;-60
2022/10/06 12:37:57;;;;;;;6.68;2.00;;;16.30;99.90;;;;;;5064100;28;20052;-60
2022/10/06 12:40:45;;;;;;;8.75;1.77;;;16.20;99.90;;;;;;5048739;28;20493;-61
2022/10/06 12:43:16;;;;;;;9.38;1.92;;;16.20;99.90;;;;;;5049078;28;20052;-61
2022/10/06 12:45:42;;;;;;;8.30;1.58;;;16.20;99.90;;;;;;5032105;28;20049;-61
2022/10/06 12:48:34;;;;;;;8.18;1.73;;;16.20;99.90;;;;;;5079904;28;20060;-61
2022/10/06 12:51:05;;;;;;;8.38;2.58;;;16.10;99.90;;;;;;5047743;28;20114;-62
2022/10/06 12:53:39;;;;;;;9.43;2.40;;;16.10;99.90;;;;;;5050139;28;20048;-61
2022/10/06 12:56:20;;;;;;;10.60;2.00;;;16.10;99.90;;;;;;5049741;28;20056;-61
2022/10/06 12:58:47;;;;;;;7.20;1.80;;;16.10;99.90;;;;;;5047773;28;20052;-60
2022/10/06 13:01:12;;;;;;;9.15;2.17;;;16.10;99.90;;;;;;5047948;28;20049;-61
2022/10/06 13:03:38;;;;;;;8.85;1.67;;;16.10;99.90;;;;;;5047981;28;20045;-62
2022/10/06 13:06:06;;;;;;;10.57;1.92;;;16.00;99.90;;;;;;5080482;28;20047;-62
2022/10/06 13:08:37;;;;;;;7.60;1.95;;;16.00;99.90;;;;;;5048231;28;20045;-62
2022/10/06 13:11:22;;;;;;;7.80;2.45;;;15.90;99.90;;;;;;5048135;28;20098;-62
2022/10/06 13:13:55;;;;;;;10.85;2.30;;;15.90;99.90;;;;;;5047627;28;20033;-60
2022/10/06 13:16:38;;;;;;;8.35;2.42;;;16.00;99.90;;;;;;5047917;28;20048;-60
2022/10/06 13:19:05;;;;;;;6.07;1.50;;;16.00;99.90;;;;;;5047441;28;20049;-62
2022/10/06 13:21:32;;;;;;;8.75;2.60;;;16.00;99.90;;;;;;5046837;28;20045;-61
2022/10/06 13:23:58;;;;;;;8.50;1.73;;;15.90;99.90;;;;;;5047981;28;20396;-62
2022/10/06 13:26:30;;;;;;;8.85;2.42;;;15.90;99.90;;;;;;5042191;28;20064;-62
2022/10/06 13:28:58;;;;;;;7.63;2.08;;;15.90;99.90;;;;;;5047242;28;20041;-61
2022/10/06 13:31:35;;;;;;;8.60;2.17;;;16.00;99.90;;;;;;5047425;28;20120;-62
2022/10/06 13:34:16;;;;;;;8.52;1.88;;;16.00;99.90;;;;;;5046971;28;20039;-61
2022/10/06 13:36:45;;;;;;;7.70;1.85;;;16.00;99.90;;;;;;5046494;28;20045;-62
2022/10/06 13:39:12;;;;;;;7.97;1.90;;;16.00;99.90;;;;;;5081117;28;20036;-63
2022/10/06 13:41:52;;;;;;;9.93;2.25;;;16.00;99.90;;;;;;5079550;28;20131;-63
2022/10/06 13:44:18;;;;;;;6.35;1.55;;;16.00;99.90;;;;;;5047120;28;20103;-64
2022/10/06 13:46:58;;;;;;;11.85;2.63;;;16.00;99.90;;;;;;5049016;28;20049;-63
2022/10/06 13:49:50;;;;;;;8.93;2.10;;;16.00;99.90;;;;;;5047683;28;20061;-64
2022/10/06 13:52:24;;;;;;;6.80;1.98;;;16.00;99.90;;;;;;5027583;28;20104;-63
2022/10/06 13:54:53;;;;;;;8.35;2.13;;;16.00;99.90;;;;;;5043892;28;20603;-62
2022/10/06 13:57:43;;;;;;;11.43;2.33;;;16.00;99.90;;;;;;5048295;28;20118;-63
2022/10/06 14:00:27;;;;;;;6.35;1.90;;;15.90;99.90;;;;;;5081149;28;20395;-63